sensor_id;sensor_type;location;lat;lon;timestamp;P1;durP1;ratioP1;P2;durP2;ratioP2
41721;SDS011;27407;24.142;-110.310;2024-01-30T00:00:20;54.63;;;3.72;;
41721;SDS011;27407;24.142;-110.310;2024-01-30T00:02:47;50.78;;;3.22;;
41721;SDS011;27407;24.142;-110.310;2024-01-30T00:05:14;9.75;;;1.88;;
41721;SDS011;27407;24.142;-110.310;2024-01-30T00:07:40;14.02;;;2.40;;
41721;SDS011;27407;24.142;-110.310;2024-01-30T00:10:07;11.50;;;2.92;;
41721;SDS011;27407;24.142;-110.310;2024-01-30T00:12:33;26.98;;;3.30;;
41721;SDS011;27407;24.142;-110.310;2024-01-30T00:15:00;103.85;;;8.15;;
41721;SDS011;27407;24.142;-110.310;2024-01-30T00:17:27;19.02;;;2.35;;
41721;SDS011;27407;24.142;-110.310;2024-01-30T00:19:53;41.65;;;4.90;;
41721;SDS011;27407;24.142;-110.310;2024-01-30T00:22:20;16.83;;;2.17;;
41721;SDS011;27407;24.142;-110.310;2024-01-30T00:24:46;20.02;;;2.47;;
41721;SDS011;27407;24.142;-110.310;2024-01-30T00:27:13;9.45;;;1.42;;
41721;SDS011;27407;24.142;-110.310;2024-01-30T00:29:39;17.73;;;1.75;;
41721;SDS011;27407;24.142;-110.310;2024-01-30T00:32:06;11.85;;;1.30;;
41721;SDS011;27407;24.142;-110.310;2024-01-30T00:37:29;25.88;;;3.08;;
41721;SDS011;27407;24.142;-110.310;2024-01-30T00:39:57;25.27;;;2.75;;
41721;SDS011;27407;24.142;-110.310;2024-01-30T00:42:23;24.33;;;3.80;;
41721;SDS011;27407;24.142;-110.310;2024-01-30T00:44:53;33.30;;;4.57;;
41721;SDS011;27407;24.142;-110.310;2024-01-30T00:47:19;20.70;;;3.60;;
41721;SDS011;27407;24.142;-110.310;2024-01-30T00:49:49;14.85;;;2.42;;
41721;SDS011;27407;24.142;-110.310;2024-01-30T00:52:18;39.47;;;4.15;;
41721;SDS011;27407;24.142;-110.310;2024-01-30T00:54:47;48.40;;;4.93;;
41721;SDS011;27407;24.142;-110.310;2024-01-30T00:57:23;50.28;;;5.55;;
41721;SDS011;27407;24.142;-110.310;2024-01-30T00:59:50;57.88;;;6.45;;
41721;SDS011;27407;24.142;-110.310;2024-01-30T01:02:16;58.80;;;7.07;;
41721;SDS011;27407;24.142;-110.310;2024-01-30T01:04:46;112.30;;;10.77;;
41721;SDS011;27407;24.142;-110.310;2024-01-30T01:07:15;64.35;;;6.45;;
41721;SDS011;27407;24.142;-110.310;2024-01-30T01:09:42;51.97;;;5.63;;
41721;SDS011;27407;24.142;-110.310;2024-01-30T01:12:11;22.10;;;2.30;;
41721;SDS011;27407;24.142;-110.310;2024-01-30T01:14:38;78.10;;;6.70;;
41721;SDS011;27407;24.142;-110.310;2024-01-30T01:17:04;94.90;;;6.82;;
41721;SDS011;27407;24.142;-110.310;2024-01-30T01:19:31;40.00;;;5.77;;
41721;SDS011;27407;24.142;-110.310;2024-01-30T01:21:58;43.63;;;4.82;;
41721;SDS011;27407;24.142;-110.310;2024-01-30T01:24:24;42.07;;;5.40;;
41721;SDS011;27407;24.142;-110.310;2024-01-30T01:26:51;39.57;;;4.03;;
41721;SDS011;27407;24.142;-110.310;2024-01-30T01:29:21;22.65;;;2.40;;
41721;SDS011;27407;24.142;-110.310;2024-01-30T01:31:56;108.55;;;9.73;;
41721;SDS011;27407;24.142;-110.310;2024-01-30T01:34:23;46.28;;;5.28;;
41721;SDS011;27407;24.142;-110.310;2024-01-30T01:36:50;35.53;;;3.77;;
41721;SDS011;27407;24.142;-110.310;2024-01-30T01:39:17;42.83;;;5.47;;
41721;SDS011;27407;24.142;-110.310;2024-01-30T01:41:44;41.60;;;6.00;;
41721;SDS011;27407;24.142;-110.310;2024-01-30T01:44:10;37.15;;;6.38;;
41721;SDS011;27407;24.142;-110.310;2024-01-30T01:46:37;34.57;;;3.53;;
41721;SDS011;27407;24.142;-110.310;2024-01-30T01:49:04;34.57;;;4.90;;
41721;SDS011;27407;24.142;-110.310;2024-01-30T01:51:32;65.27;;;5.40;;
41721;SDS011;27407;24.142;-110.310;2024-01-30T01:54:04;91.20;;;9.27;;
41721;SDS011;27407;24.142;-110.310;2024-01-30T01:56:31;28.42;;;3.97;;
41721;SDS011;27407;24.142;-110.310;2024-01-30T01:59:00;27.05;;;3.83;;
41721;SDS011;27407;24.142;-110.310;2024-01-30T02:01:32;30.03;;;4.30;;
41721;SDS011;27407;24.142;-110.310;2024-01-30T02:04:08;38.03;;;3.60;;
41721;SDS011;27407;24.142;-110.310;2024-01-30T02:06:35;47.33;;;3.60;;
41721;SDS011;27407;24.142;-110.310;2024-01-30T02:09:02;23.00;;;2.70;;
41721;SDS011;27407;24.142;-110.310;2024-01-30T02:11:29;29.95;;;3.30;;
41721;SDS011;27407;24.142;-110.310;2024-01-30T02:14:01;36.65;;;3.65;;
41721;SDS011;27407;24.142;-110.310;2024-01-30T02:16:29;37.50;;;3.27;;
41721;SDS011;27407;24.142;-110.310;2024-01-30T02:18:56;35.83;;;4.90;;
41721;SDS011;27407;24.142;-110.310;2024-01-30T02:21:23;46.10;;;3.70;;
41721;SDS011;27407;24.142;-110.310;2024-01-30T02:23:50;37.53;;;5.10;;
41721;SDS011;27407;24.142;-110.310;2024-01-30T02:26:18;88.40;;;7.57;;
41721;SDS011;27407;24.142;-110.310;2024-01-30T02:28:44;56.15;;;6.63;;
41721;SDS011;27407;24.142;-110.310;2024-01-30T02:31:11;58.80;;;6.93;;
41721;SDS011;27407;24.142;-110.310;2024-01-30T02:33:37;64.85;;;5.75;;
41721;SDS011;27407;24.142;-110.310;2024-01-30T02:36:04;61.80;;;7.10;;
41721;SDS011;27407;24.142;-110.310;2024-01-30T02:38:31;73.60;;;7.27;;
41721;SDS011;27407;24.142;-110.310;2024-01-30T02:40:57;101.47;;;10.83;;
41721;SDS011;27407;24.142;-110.310;2024-01-30T02:43:24;105.87;;;8.77;;
41721;SDS011;27407;24.142;-110.310;2024-01-30T02:45:50;33.43;;;3.90;;
41721;SDS011;27407;24.142;-110.310;2024-01-30T02:48:17;35.93;;;4.03;;
41721;SDS011;27407;24.142;-110.310;2024-01-30T02:50:43;34.83;;;3.90;;
41721;SDS011;27407;24.142;-110.310;2024-01-30T02:53:11;96.90;;;6.83;;
41721;SDS011;27407;24.142;-110.310;2024-01-30T02:55:37;30.10;;;2.80;;
41721;SDS011;27407;24.142;-110.310;2024-01-30T02:58:07;17.90;;;2.60;;
41721;SDS011;27407;24.142;-110.310;2024-01-30T03:00:33;27.23;;;4.37;;
41721;SDS011;27407;24.142;-110.310;2024-01-30T03:03:00;19.87;;;3.53;;
41721;SDS011;27407;24.142;-110.310;2024-01-30T03:05:27;13.13;;;1.77;;
41721;SDS011;27407;24.142;-110.310;2024-01-30T03:07:53;27.33;;;2.07;;
41721;SDS011;27407;24.142;-110.310;2024-01-30T03:10:20;34.33;;;2.67;;
41721;SDS011;27407;24.142;-110.310;2024-01-30T03:12:47;18.80;;;2.33;;
41721;SDS011;27407;24.142;-110.310;2024-01-30T03:15:13;30.65;;;2.85;;
41721;SDS011;27407;24.142;-110.310;2024-01-30T03:17:40;5.33;;;1.50;;
41721;SDS011;27407;24.142;-110.310;2024-01-30T03:20:07;10.23;;;1.40;;
41721;SDS011;27407;24.142;-110.310;2024-01-30T03:22:34;11.17;;;1.40;;
41721;SDS011;27407;24.142;-110.310;2024-01-30T03:25:01;10.90;;;1.20;;
41721;SDS011;27407;24.142;-110.310;2024-01-30T03:27:27;3.55;;;0.75;;
41721;SDS011;27407;24.142;-110.310;2024-01-30T03:29:54;16.27;;;1.57;;
41721;SDS011;27407;24.142;-110.310;2024-01-30T03:32:21;9.40;;;1.95;;
41721;SDS011;27407;24.142;-110.310;2024-01-30T03:34:47;11.05;;;1.25;;
41721;SDS011;27407;24.142;-110.310;2024-01-30T03:37:14;8.27;;;0.90;;
41721;SDS011;27407;24.142;-110.310;2024-01-30T03:39:40;7.80;;;1.15;;
41721;SDS011;27407;24.142;-110.310;2024-01-30T03:42:07;8.43;;;1.48;;
41721;SDS011;27407;24.142;-110.310;2024-01-30T03:44:33;19.40;;;1.95;;
41721;SDS011;27407;24.142;-110.310;2024-01-30T03:47:00;20.83;;;2.45;;
41721;SDS011;27407;24.142;-110.310;2024-01-30T03:49:26;9.57;;;2.30;;
41721;SDS011;27407;24.142;-110.310;2024-01-30T03:51:53;22.15;;;2.55;;
41721;SDS011;27407;24.142;-110.310;2024-01-30T03:54:20;21.48;;;2.17;;
41721;SDS011;27407;24.142;-110.310;2024-01-30T03:56:46;18.45;;;1.90;;
41721;SDS011;27407;24.142;-110.310;2024-01-30T03:59:13;7.82;;;1.13;;
41721;SDS011;27407;24.142;-110.310;2024-01-30T04:01:39;8.93;;;1.47;;
41721;SDS011;27407;24.142;-110.310;2024-01-30T04:04:06;11.53;;;1.80;;
41721;SDS011;27407;24.142;-110.310;2024-01-30T04:06:32;14.37;;;1.50;;
41721;SDS011;27407;24.142;-110.310;2024-01-30T04:08:59;14.30;;;1.50;;
41721;SDS011;27407;24.142;-110.310;2024-01-30T04:11:26;5.53;;;0.97;;
41721;SDS011;27407;24.142;-110.310;2024-01-30T04:13:52;8.63;;;1.48;;
41721;SDS011;27407;24.142;-110.310;2024-01-30T04:16:22;15.00;;;1.50;;
41721;SDS011;27407;24.142;-110.310;2024-01-30T04:18:52;11.88;;;1.90;;
41721;SDS011;27407;24.142;-110.310;2024-01-30T04:21:22;26.57;;;2.70;;
41721;SDS011;27407;24.142;-110.310;2024-01-30T04:24:09;14.17;;;1.57;;
41721;SDS011;27407;24.142;-110.310;2024-01-30T04:26:35;18.13;;;1.63;;
41721;SDS011;27407;24.142;-110.310;2024-01-30T04:29:02;2.95;;;0.90;;
41721;SDS011;27407;24.142;-110.310;2024-01-30T04:31:28;5.20;;;0.90;;
41721;SDS011;27407;24.142;-110.310;2024-01-30T04:33:55;3.43;;;0.50;;
41721;SDS011;27407;24.142;-110.310;2024-01-30T04:36:21;2.50;;;0.60;;
41721;SDS011;27407;24.142;-110.310;2024-01-30T04:38:48;4.38;;;1.00;;
41721;SDS011;27407;24.142;-110.310;2024-01-30T04:41:14;1.77;;;0.82;;
41721;SDS011;27407;24.142;-110.310;2024-01-30T04:43:41;10.20;;;0.93;;
41721;SDS011;27407;24.142;-110.310;2024-01-30T04:46:08;2.47;;;0.63;;
41721;SDS011;27407;24.142;-110.310;2024-01-30T04:48:34;30.58;;;3.05;;
41721;SDS011;27407;24.142;-110.310;2024-01-30T04:51:01;6.32;;;1.10;;
41721;SDS011;27407;24.142;-110.310;2024-01-30T04:53:29;19.98;;;1.42;;
41721;SDS011;27407;24.142;-110.310;2024-01-30T04:55:56;2.87;;;0.60;;
41721;SDS011;27407;24.142;-110.310;2024-01-30T04:58:29;4.53;;;0.60;;
41721;SDS011;27407;24.142;-110.310;2024-01-30T05:01:04;5.47;;;0.87;;
41721;SDS011;27407;24.142;-110.310;2024-01-30T05:03:57;5.10;;;0.70;;
41721;SDS011;27407;24.142;-110.310;2024-01-30T05:06:42;7.30;;;0.73;;
41721;SDS011;27407;24.142;-110.310;2024-01-30T05:09:11;13.97;;;1.10;;
41721;SDS011;27407;24.142;-110.310;2024-01-30T05:11:38;31.97;;;3.57;;
41721;SDS011;27407;24.142;-110.310;2024-01-30T05:14:12;19.43;;;1.83;;
41721;SDS011;27407;24.142;-110.310;2024-01-30T05:19:54;18.65;;;2.42;;
41721;SDS011;27407;24.142;-110.310;2024-01-30T05:22:20;18.67;;;2.67;;
41721;SDS011;27407;24.142;-110.310;2024-01-30T05:24:47;17.27;;;2.63;;
41721;SDS011;27407;24.142;-110.310;2024-01-30T05:27:13;48.73;;;3.90;;
41721;SDS011;27407;24.142;-110.310;2024-01-30T05:29:40;26.57;;;3.30;;
41721;SDS011;27407;24.142;-110.310;2024-01-30T05:32:07;32.83;;;3.20;;
41721;SDS011;27407;24.142;-110.310;2024-01-30T05:34:35;48.00;;;4.23;;
41721;SDS011;27407;24.142;-110.310;2024-01-30T05:37:03;54.00;;;5.13;;
41721;SDS011;27407;24.142;-110.310;2024-01-30T05:39:30;33.40;;;3.90;;
41721;SDS011;27407;24.142;-110.310;2024-01-30T05:41:58;40.08;;;3.10;;
41721;SDS011;27407;24.142;-110.310;2024-01-30T05:44:25;13.43;;;1.27;;
41721;SDS011;27407;24.142;-110.310;2024-01-30T05:46:51;14.80;;;1.63;;
41721;SDS011;27407;24.142;-110.310;2024-01-30T05:49:18;60.40;;;6.37;;
41721;SDS011;27407;24.142;-110.310;2024-01-30T05:51:45;93.33;;;6.50;;
41721;SDS011;27407;24.142;-110.310;2024-01-30T05:54:12;26.57;;;2.93;;
41721;SDS011;27407;24.142;-110.310;2024-01-30T05:56:38;17.53;;;3.00;;
41721;SDS011;27407;24.142;-110.310;2024-01-30T05:59:05;13.03;;;2.33;;
41721;SDS011;27407;24.142;-110.310;2024-01-30T06:01:31;20.27;;;4.23;;
41721;SDS011;27407;24.142;-110.310;2024-01-30T06:03:58;16.67;;;2.83;;
41721;SDS011;27407;24.142;-110.310;2024-01-30T06:06:25;14.60;;;2.60;;
41721;SDS011;27407;24.142;-110.310;2024-01-30T06:08:51;10.67;;;1.60;;
41721;SDS011;27407;24.142;-110.310;2024-01-30T06:11:20;13.73;;;1.00;;
41721;SDS011;27407;24.142;-110.310;2024-01-30T06:13:47;7.63;;;1.65;;
41721;SDS011;27407;24.142;-110.310;2024-01-30T06:16:13;18.90;;;2.10;;
41721;SDS011;27407;24.142;-110.310;2024-01-30T06:18:40;42.97;;;3.83;;
41721;SDS011;27407;24.142;-110.310;2024-01-30T06:21:06;48.88;;;4.35;;
41721;SDS011;27407;24.142;-110.310;2024-01-30T06:23:33;28.47;;;3.03;;
41721;SDS011;27407;24.142;-110.310;2024-01-30T06:26:00;31.13;;;3.23;;
41721;SDS011;27407;24.142;-110.310;2024-01-30T06:28:26;39.40;;;2.97;;
41721;SDS011;27407;24.142;-110.310;2024-01-30T06:30:53;17.70;;;2.43;;
41721;SDS011;27407;24.142;-110.310;2024-01-30T06:33:19;17.87;;;2.10;;
41721;SDS011;27407;24.142;-110.310;2024-01-30T06:35:46;30.60;;;3.00;;
41721;SDS011;27407;24.142;-110.310;2024-01-30T06:38:12;34.30;;;3.37;;
41721;SDS011;27407;24.142;-110.310;2024-01-30T06:40:41;43.07;;;4.60;;
41721;SDS011;27407;24.142;-110.310;2024-01-30T06:43:08;38.00;;;3.70;;
41721;SDS011;27407;24.142;-110.310;2024-01-30T06:45:34;37.20;;;3.73;;
41721;SDS011;27407;24.142;-110.310;2024-01-30T06:48:01;20.33;;;2.73;;
41721;SDS011;27407;24.142;-110.310;2024-01-30T06:50:28;18.73;;;2.40;;
41721;SDS011;27407;24.142;-110.310;2024-01-30T06:52:54;25.63;;;3.57;;
41721;SDS011;27407;24.142;-110.310;2024-01-30T06:55:21;31.37;;;3.47;;
41721;SDS011;27407;24.142;-110.310;2024-01-30T06:57:47;30.23;;;4.23;;
41721;SDS011;27407;24.142;-110.310;2024-01-30T07:00:14;25.87;;;3.00;;
41721;SDS011;27407;24.142;-110.310;2024-01-30T07:02:41;33.93;;;2.77;;
41721;SDS011;27407;24.142;-110.310;2024-01-30T07:05:08;28.07;;;3.37;;
41721;SDS011;27407;24.142;-110.310;2024-01-30T07:07:35;26.00;;;2.77;;
41721;SDS011;27407;24.142;-110.310;2024-01-30T07:10:01;43.70;;;4.57;;
41721;SDS011;27407;24.142;-110.310;2024-01-30T07:12:30;26.77;;;2.70;;
41721;SDS011;27407;24.142;-110.310;2024-01-30T07:14:56;26.33;;;3.03;;
41721;SDS011;27407;24.142;-110.310;2024-01-30T07:17:25;20.10;;;3.03;;
41721;SDS011;27407;24.142;-110.310;2024-01-30T07:19:52;20.10;;;3.50;;
41721;SDS011;27407;24.142;-110.310;2024-01-30T07:22:19;23.00;;;2.60;;
41721;SDS011;27407;24.142;-110.310;2024-01-30T07:24:45;23.00;;;2.80;;
41721;SDS011;27407;24.142;-110.310;2024-01-30T07:27:14;22.30;;;2.53;;
41721;SDS011;27407;24.142;-110.310;2024-01-30T07:29:42;26.80;;;2.97;;
41721;SDS011;27407;24.142;-110.310;2024-01-30T07:32:09;28.57;;;3.10;;
41721;SDS011;27407;24.142;-110.310;2024-01-30T07:34:36;18.30;;;2.67;;
41721;SDS011;27407;24.142;-110.310;2024-01-30T07:37:02;35.30;;;4.30;;
41721;SDS011;27407;24.142;-110.310;2024-01-30T07:39:30;32.57;;;4.83;;
41721;SDS011;27407;24.142;-110.310;2024-01-30T07:41:56;19.53;;;3.97;;
41721;SDS011;27407;24.142;-110.310;2024-01-30T07:44:23;20.57;;;3.93;;
41721;SDS011;27407;24.142;-110.310;2024-01-30T07:46:50;20.57;;;3.23;;
41721;SDS011;27407;24.142;-110.310;2024-01-30T07:49:16;17.77;;;3.30;;
41721;SDS011;27407;24.142;-110.310;2024-01-30T07:51:43;25.33;;;3.70;;
41721;SDS011;27407;24.142;-110.310;2024-01-30T07:54:10;10.87;;;2.10;;
41721;SDS011;27407;24.142;-110.310;2024-01-30T07:56:37;15.10;;;2.27;;
41721;SDS011;27407;24.142;-110.310;2024-01-30T07:59:03;6.53;;;1.23;;
41721;SDS011;27407;24.142;-110.310;2024-01-30T08:01:30;9.40;;;1.17;;
41721;SDS011;27407;24.142;-110.310;2024-01-30T08:03:56;22.60;;;2.00;;
41721;SDS011;27407;24.142;-110.310;2024-01-30T08:06:23;6.07;;;1.10;;
41721;SDS011;27407;24.142;-110.310;2024-01-30T08:08:49;8.13;;;1.00;;
41721;SDS011;27407;24.142;-110.310;2024-01-30T08:11:19;7.50;;;1.27;;
41721;SDS011;27407;24.142;-110.310;2024-01-30T08:13:51;3.72;;;0.68;;
41721;SDS011;27407;24.142;-110.310;2024-01-30T08:16:18;18.57;;;2.47;;
41721;SDS011;27407;24.142;-110.310;2024-01-30T08:18:44;13.48;;;2.85;;
41721;SDS011;27407;24.142;-110.310;2024-01-30T08:21:11;17.50;;;2.33;;
41721;SDS011;27407;24.142;-110.310;2024-01-30T08:23:38;13.65;;;2.08;;
41721;SDS011;27407;24.142;-110.310;2024-01-30T08:26:05;5.10;;;1.20;;
41721;SDS011;27407;24.142;-110.310;2024-01-30T08:28:31;9.77;;;1.30;;
41721;SDS011;27407;24.142;-110.310;2024-01-30T08:30:58;3.87;;;1.03;;
41721;SDS011;27407;24.142;-110.310;2024-01-30T08:33:25;2.00;;;0.80;;
41721;SDS011;27407;24.142;-110.310;2024-01-30T08:35:51;4.73;;;0.70;;
41721;SDS011;27407;24.142;-110.310;2024-01-30T08:38:18;4.35;;;0.93;;
41721;SDS011;27407;24.142;-110.310;2024-01-30T08:40:44;2.15;;;0.60;;
41721;SDS011;27407;24.142;-110.310;2024-01-30T08:43:11;5.05;;;0.73;;
41721;SDS011;27407;24.142;-110.310;2024-01-30T08:45:38;4.53;;;0.50;;
41721;SDS011;27407;24.142;-110.310;2024-01-30T08:48:04;2.30;;;0.55;;
41721;SDS011;27407;24.142;-110.310;2024-01-30T08:50:31;2.88;;;0.35;;
41721;SDS011;27407;24.142;-110.310;2024-01-30T08:52:58;3.90;;;0.73;;
41721;SDS011;27407;24.142;-110.310;2024-01-30T08:55:24;2.85;;;0.70;;
41721;SDS011;27407;24.142;-110.310;2024-01-30T08:57:51;5.00;;;0.80;;
41721;SDS011;27407;24.142;-110.310;2024-01-30T09:00:18;7.03;;;1.20;;
41721;SDS011;27407;24.142;-110.310;2024-01-30T09:02:45;10.38;;;1.52;;
41721;SDS011;27407;24.142;-110.310;2024-01-30T09:05:11;8.15;;;1.65;;
41721;SDS011;27407;24.142;-110.310;2024-01-30T09:07:38;7.00;;;1.58;;
41721;SDS011;27407;24.142;-110.310;2024-01-30T09:10:05;1.10;;;0.45;;
41721;SDS011;27407;24.142;-110.310;2024-01-30T09:12:32;9.50;;;0.75;;
41721;SDS011;27407;24.142;-110.310;2024-01-30T09:14:58;2.58;;;1.02;;
41721;SDS011;27407;24.142;-110.310;2024-01-30T09:17:25;2.70;;;1.10;;
41721;SDS011;27407;24.142;-110.310;2024-01-30T09:19:51;1.67;;;0.60;;
41721;SDS011;27407;24.142;-110.310;2024-01-30T09:22:18;4.22;;;0.52;;
41721;SDS011;27407;24.142;-110.310;2024-01-30T09:24:44;8.50;;;1.33;;
41721;SDS011;27407;24.142;-110.310;2024-01-30T09:27:11;2.30;;;0.82;;
41721;SDS011;27407;24.142;-110.310;2024-01-30T09:29:37;5.60;;;1.30;;
41721;SDS011;27407;24.142;-110.310;2024-01-30T09:32:04;4.32;;;0.80;;
41721;SDS011;27407;24.142;-110.310;2024-01-30T09:34:32;3.77;;;0.70;;
41721;SDS011;27407;24.142;-110.310;2024-01-30T09:36:59;2.23;;;0.70;;
41721;SDS011;27407;24.142;-110.310;2024-01-30T09:39:26;1.75;;;0.65;;
41721;SDS011;27407;24.142;-110.310;2024-01-30T09:42:00;1.10;;;0.60;;
41721;SDS011;27407;24.142;-110.310;2024-01-30T09:44:46;1.75;;;0.40;;
41721;SDS011;27407;24.142;-110.310;2024-01-30T09:47:16;1.15;;;0.55;;
41721;SDS011;27407;24.142;-110.310;2024-01-30T09:49:43;4.70;;;0.60;;
41721;SDS011;27407;24.142;-110.310;2024-01-30T09:52:10;1.38;;;0.30;;
41721;SDS011;27407;24.142;-110.310;2024-01-30T09:54:38;3.40;;;0.40;;
41721;SDS011;27407;24.142;-110.310;2024-01-30T09:57:04;1.35;;;0.50;;
41721;SDS011;27407;24.142;-110.310;2024-01-30T09:59:32;3.28;;;0.73;;
41721;SDS011;27407;24.142;-110.310;2024-01-30T10:01:59;1.40;;;0.40;;
41721;SDS011;27407;24.142;-110.310;2024-01-30T10:04:25;4.22;;;0.65;;
41721;SDS011;27407;24.142;-110.310;2024-01-30T10:06:52;1.40;;;0.65;;
41721;SDS011;27407;24.142;-110.310;2024-01-30T10:09:18;3.08;;;0.30;;
41721;SDS011;27407;24.142;-110.310;2024-01-30T10:11:45;3.08;;;0.35;;
41721;SDS011;27407;24.142;-110.310;2024-01-30T10:14:12;2.53;;;0.35;;
41721;SDS011;27407;24.142;-110.310;2024-01-30T10:16:38;3.30;;;0.40;;
41721;SDS011;27407;24.142;-110.310;2024-01-30T10:19:05;1.55;;;0.55;;
41721;SDS011;27407;24.142;-110.310;2024-01-30T10:21:31;1.20;;;0.30;;
41721;SDS011;27407;24.142;-110.310;2024-01-30T10:23:58;2.90;;;0.35;;
41721;SDS011;27407;24.142;-110.310;2024-01-30T10:26:25;0.28;;;0.28;;
41721;SDS011;27407;24.142;-110.310;2024-01-30T10:28:52;3.33;;;0.50;;
41721;SDS011;27407;24.142;-110.310;2024-01-30T10:31:19;1.80;;;0.50;;
41721;SDS011;27407;24.142;-110.310;2024-01-30T10:33:45;1.65;;;0.30;;
41721;SDS011;27407;24.142;-110.310;2024-01-30T10:36:13;0.53;;;0.40;;
41721;SDS011;27407;24.142;-110.310;2024-01-30T10:38:41;3.85;;;0.50;;
41721;SDS011;27407;24.142;-110.310;2024-01-30T10:41:12;10.27;;;0.63;;
41721;SDS011;27407;24.142;-110.310;2024-01-30T10:43:41;4.45;;;0.50;;
41721;SDS011;27407;24.142;-110.310;2024-01-30T10:46:16;3.30;;;0.40;;
41721;SDS011;27407;24.142;-110.310;2024-01-30T10:48:46;9.55;;;1.25;;
41721;SDS011;27407;24.142;-110.310;2024-01-30T10:51:22;1.02;;;0.47;;
41721;SDS011;27407;24.142;-110.310;2024-01-30T10:53:49;2.40;;;0.65;;
41721;SDS011;27407;24.142;-110.310;2024-01-30T10:56:16;1.13;;;0.47;;
41721;SDS011;27407;24.142;-110.310;2024-01-30T10:58:43;3.90;;;0.50;;
41721;SDS011;27407;24.142;-110.310;2024-01-30T11:01:10;0.93;;;0.32;;
41721;SDS011;27407;24.142;-110.310;2024-01-30T11:03:38;1.57;;;0.40;;
41721;SDS011;27407;24.142;-110.310;2024-01-30T11:06:04;7.73;;;0.50;;
41721;SDS011;27407;24.142;-110.310;2024-01-30T11:08:36;3.07;;;0.30;;
41721;SDS011;27407;24.142;-110.310;2024-01-30T11:11:02;1.67;;;0.53;;
41721;SDS011;27407;24.142;-110.310;2024-01-30T11:13:35;5.93;;;0.40;;
41721;SDS011;27407;24.142;-110.310;2024-01-30T11:16:02;0.87;;;0.30;;
41721;SDS011;27407;24.142;-110.310;2024-01-30T11:18:32;7.53;;;0.30;;
41721;SDS011;27407;24.142;-110.310;2024-01-30T11:21:04;0.80;;;0.30;;
41721;SDS011;27407;24.142;-110.310;2024-01-30T11:23:31;3.20;;;0.45;;
41721;SDS011;27407;24.142;-110.310;2024-01-30T11:26:01;1.75;;;0.40;;
41721;SDS011;27407;24.142;-110.310;2024-01-30T11:28:33;6.80;;;1.13;;
41721;SDS011;27407;24.142;-110.310;2024-01-30T11:31:03;11.43;;;1.00;;
41721;SDS011;27407;24.142;-110.310;2024-01-30T11:33:32;9.77;;;0.60;;
41721;SDS011;27407;24.142;-110.310;2024-01-30T11:35:59;0.23;;;0.20;;
41721;SDS011;27407;24.142;-110.310;2024-01-30T11:38:32;0.95;;;0.40;;
41721;SDS011;27407;24.142;-110.310;2024-01-30T11:40:58;1.40;;;0.40;;
41721;SDS011;27407;24.142;-110.310;2024-01-30T11:43:26;0.85;;;0.45;;
41721;SDS011;27407;24.142;-110.310;2024-01-30T11:45:52;1.25;;;0.28;;
41721;SDS011;27407;24.142;-110.310;2024-01-30T11:48:19;2.38;;;0.43;;
41721;SDS011;27407;24.142;-110.310;2024-01-30T11:50:45;1.27;;;0.50;;
41721;SDS011;27407;24.142;-110.310;2024-01-30T11:53:12;1.75;;;0.20;;
41721;SDS011;27407;24.142;-110.310;2024-01-30T11:55:39;0.88;;;0.30;;
41721;SDS011;27407;24.142;-110.310;2024-01-30T11:58:06;1.33;;;0.60;;
41721;SDS011;27407;24.142;-110.310;2024-01-30T12:00:32;4.47;;;0.60;;
41721;SDS011;27407;24.142;-110.310;2024-01-30T12:02:59;2.00;;;0.40;;
41721;SDS011;27407;24.142;-110.310;2024-01-30T12:05:26;2.13;;;0.40;;
41721;SDS011;27407;24.142;-110.310;2024-01-30T12:07:53;4.30;;;0.52;;
41721;SDS011;27407;24.142;-110.310;2024-01-30T12:10:19;10.48;;;1.02;;
41721;SDS011;27407;24.142;-110.310;2024-01-30T12:12:47;4.35;;;0.60;;
41721;SDS011;27407;24.142;-110.310;2024-01-30T12:15:17;5.63;;;0.90;;
41721;SDS011;27407;24.142;-110.310;2024-01-30T12:17:47;3.85;;;0.77;;
41721;SDS011;27407;24.142;-110.310;2024-01-30T12:20:14;3.17;;;0.73;;
41721;SDS011;27407;24.142;-110.310;2024-01-30T12:22:43;3.90;;;0.60;;
41721;SDS011;27407;24.142;-110.310;2024-01-30T12:25:11;0.82;;;0.40;;
41721;SDS011;27407;24.142;-110.310;2024-01-30T12:27:40;1.13;;;0.38;;
41721;SDS011;27407;24.142;-110.310;2024-01-30T12:30:09;0.47;;;0.40;;
41721;SDS011;27407;24.142;-110.310;2024-01-30T12:32:40;1.50;;;0.57;;
41721;SDS011;27407;24.142;-110.310;2024-01-30T12:35:12;3.25;;;0.60;;
41721;SDS011;27407;24.142;-110.310;2024-01-30T12:37:42;2.83;;;0.50;;
41721;SDS011;27407;24.142;-110.310;2024-01-30T12:40:16;3.00;;;0.30;;
41721;SDS011;27407;24.142;-110.310;2024-01-30T12:42:43;21.70;;;1.10;;
41721;SDS011;27407;24.142;-110.310;2024-01-30T12:45:15;8.55;;;0.60;;
41721;SDS011;27407;24.142;-110.310;2024-01-30T12:47:46;4.30;;;0.30;;
41721;SDS011;27407;24.142;-110.310;2024-01-30T12:50:13;1.03;;;0.40;;
41721;SDS011;27407;24.142;-110.310;2024-01-30T12:52:42;5.60;;;0.73;;
41721;SDS011;27407;24.142;-110.310;2024-01-30T12:55:08;4.70;;;0.70;;
41721;SDS011;27407;24.142;-110.310;2024-01-30T12:57:35;3.40;;;0.70;;
41721;SDS011;27407;24.142;-110.310;2024-01-30T13:00:02;4.67;;;0.53;;
41721;SDS011;27407;24.142;-110.310;2024-01-30T13:02:28;9.03;;;1.53;;
41721;SDS011;27407;24.142;-110.310;2024-01-30T13:05:00;4.43;;;0.80;;
41721;SDS011;27407;24.142;-110.310;2024-01-30T13:07:27;11.40;;;1.00;;
41721;SDS011;27407;24.142;-110.310;2024-01-30T13:09:53;6.83;;;0.83;;
41721;SDS011;27407;24.142;-110.310;2024-01-30T13:12:20;8.57;;;0.97;;
41721;SDS011;27407;24.142;-110.310;2024-01-30T13:14:47;4.73;;;0.90;;
41721;SDS011;27407;24.142;-110.310;2024-01-30T13:17:13;1.37;;;0.70;;
41721;SDS011;27407;24.142;-110.310;2024-01-30T13:19:40;2.10;;;0.60;;
41721;SDS011;27407;24.142;-110.310;2024-01-30T13:22:06;1.60;;;0.50;;
41721;SDS011;27407;24.142;-110.310;2024-01-30T13:24:33;3.30;;;0.87;;
41721;SDS011;27407;24.142;-110.310;2024-01-30T13:26:59;1.13;;;0.70;;
41721;SDS011;27407;24.142;-110.310;2024-01-30T13:29:26;2.93;;;0.80;;
41721;SDS011;27407;24.142;-110.310;2024-01-30T13:31:52;2.07;;;0.80;;
41721;SDS011;27407;24.142;-110.310;2024-01-30T13:34:19;4.53;;;0.90;;
41721;SDS011;27407;24.142;-110.310;2024-01-30T13:36:45;1.00;;;0.63;;
41721;SDS011;27407;24.142;-110.310;2024-01-30T13:39:14;5.43;;;0.70;;
41721;SDS011;27407;24.142;-110.310;2024-01-30T13:41:43;6.50;;;0.73;;
41721;SDS011;27407;24.142;-110.310;2024-01-30T13:44:10;1.70;;;0.60;;
41721;SDS011;27407;24.142;-110.310;2024-01-30T13:46:37;2.70;;;0.80;;
41721;SDS011;27407;24.142;-110.310;2024-01-30T13:49:04;4.10;;;0.83;;
41721;SDS011;27407;24.142;-110.310;2024-01-30T13:51:32;1.50;;;0.50;;
41721;SDS011;27407;24.142;-110.310;2024-01-30T13:53:58;1.20;;;0.60;;
41721;SDS011;27407;24.142;-110.310;2024-01-30T13:56:25;1.60;;;0.63;;
41721;SDS011;27407;24.142;-110.310;2024-01-30T13:58:52;3.67;;;1.50;;
41721;SDS011;27407;24.142;-110.310;2024-01-30T14:01:20;9.43;;;0.97;;
41721;SDS011;27407;24.142;-110.310;2024-01-30T14:03:47;1.63;;;0.80;;
41721;SDS011;27407;24.142;-110.310;2024-01-30T14:06:14;2.20;;;0.87;;
41721;SDS011;27407;24.142;-110.310;2024-01-30T14:08:40;2.23;;;0.87;;